Terminal Aerodrome Forecast
Issued by NWS

Home | Current Version | Previous Version | Text Only | Print | Product List | Glossary On
Versions: 1 2 3 4 5 6 7 8 9 10 11 12 13 14 15 16 17 18 19 20 21
000
FTUS43 KPAH 221015 AAA
TAFOWB
TAF AMD
KOWB 221015Z 2210/2306 15003KT P6SM OVC080
      TEMPO 2211/2214 3SM BR BKN012
     FM221400 00000KT 6SM BR BKN025
     FM221800 18005KT P6SM BKN035=

USA.gov is the U.S. government's official web portal to all federal, state and local government web resources and services.